CST,Max TemperatureF,Mean TemperatureF,Min TemperatureF,Max Dew PointF,MeanDew PointF,Min DewpointF,Max Humidity, Mean Humidity, Min Humidity, Max Sea Level PressureIn, Mean Sea Level PressureIn, Min Sea Level PressureIn, Max VisibilityMiles, Mean VisibilityMiles, Min VisibilityMiles, Max Wind SpeedMPH, Mean Wind SpeedMPH, Max Gust SpeedMPH,PrecipitationIn, CloudCover, Events, WindDirDegrees
2013-1-1,16,3,-10,10,0,-15,87,75,63,30.35,30.22,30.07,10,10,6,14,8,,T,4,Snow,241
2013-1-2,24,14,4,20,8,-2,88,81,73,30.12,30.03,29.94,10,5,1,13,9,,0.01,6,Snow,214
2013-1-3,24,15,6,17,6,1,84,76,67,30.32,30.22,30.06,10,7,2,21,14,25,T,5,Snow,279
2013-1-4,27,19,11,15,10,6,88,75,62,30.20,30.16,30.03,10,10,7,24,12,28,0.00,0,,234
2013-1-5,27,18,8,19,12,5,88,78,68,30.15,30.02,29.92,10,7,5,26,12,31,0.00,0,,216
2013-1-6,18,13,7,11,7,2,92,80,67,30.29,30.20,29.99,10,9,6,28,11,25,0.00,2,,264
2013-1-7,32,24,16,24,18,12,91,79,66,30.14,30.02,29.93,10,9,4,29,15,35,0.00,0,,204
2013-1-8,35,24,12,29,17,9,92,81,67,30.05,29.95,29.81,9,4,0,22,9,28,0.01,1,Fog-Rain,180
2013-1-9,33,26,19,25,22,16,85,73,61,30.42,30.27,29.99,10,10,8,24,14,32,T,1,Snow,242
2013-1-10,37,32,27,34,26,19,96,72,48,30.40,30.07,29.75,10,7,0,23,15,29,0.17,5,Fog-Rain,151
2013-1-11,42,38,34,39,36,32,100,93,86,29.76,29.56,29.43,8,1,0,21,11,29,0.02,8,Fog,170
2013-1-12,41,25,8,37,15,-1,92,77,61,30.10,29.82,29.44,10,9,3,33,19,41,T,7,Snow,262
2013-1-13,11,7,3,3,-1,-4,83,75,66,30.30,30.14,29.99,10,9,2,17,12,22,T,4,Snow,294
2013-1-14,21,13,4,10,5,-1,83,73,62,30.45,30.39,30.26,10,10,5,16,8,22,T,3,Snow,247
2013-1-15,30,20,10,16,12,5,80,67,53,30.38,30.22,29.90,10,10,10,23,14,30,0.00,0,,200
2013-1-16,40,29,17,31,23,8,89,76,62,30.22,29.88,29.72,10,8,1,28,17,35,0.03,6,Rain-Snow,284
2013-1-17,24,16,7,14,7,0,80,67,53,30.45,30.39,30.25,10,10,10,18,9,23,0.00,4,,294
2013-1-18,44,31,18,32,24,12,82,71,60,30.34,29.97,29.80,10,10,10,30,15,35,0.00,2,,201
2013-1-19,42,23,4,31,17,-6,85,72,59,30.19,29.89,29.71,10,10,9,47,18,56,0.00,4,,280
2013-1-20,13,7,1,0,-4,-8,76,62,48,30.42,30.31,30.19,10,9,2,24,15,31,T,3,Snow,303
2013-1-21,1,-4,-9,-9,-14,-19,71,62,53,30.38,30.31,30.19,10,9,4,24,16,30,T,3,,299
2013-1-22,8,0,-9,-3,-10,-15,79,67,54,30.45,30.39,30.31,10,10,7,13,8,16,0.00,3,,278
2013-1-23,17,7,-3,9,3,-16,83,67,51,30.60,30.24,30.10,10,6,2,32,16,39,0.02,7,Snow,279
2013-1-24,14,5,-5,1,-8,-16,65,58,50,30.71,30.54,30.26,10,10,10,20,11,25,0.00,2,,111
2013-1-25,23,14,4,13,4,-3,76,61,45,30.32,30.11,29.92,10,9,3,35,16,41,0.01,4,Snow,268
2013-1-26,26,13,0,11,3,-5,83,65,47,30.40,30.31,30.21,10,10,10,22,10,28,0.00,4,,165
2013-1-27,32,29,25,30,26,11,92,71,49,30.19,29.92,29.78,10,4,1,26,14,30,0.33,8,Rain-Snow,148
2013-1-28,34,33,31,32,30,28,92,89,85,29.94,29.83,29.64,5,1,0,18,8,23,0.02,8,Fog-Rain-Thunderstorm,155
2013-1-29,38,34,29,36,31,23,96,87,78,29.68,29.59,29.51,10,4,0,26,13,32,0.11,8,Fog-Rain-Thunderstorm,312
2013-1-30,29,20,11,22,12,4,84,76,67,29.76,29.60,29.51,10,3,0,31,23,38,0.06,8,Snow,330
2013-1-31,11,2,-7,5,-6,-15,83,74,64,30.31,29.99,29.69,10,6,1,29,21,33,T,7,Snow,300